Time;durP1;ratioP1;P1;durP2;ratioP2;P2;SDS_P1;SDS_P2;PMS_P1;PMS_P2;Temp;Humidity;BMP_temperature;BMP_pressure;BME280_temperature;BME280_humidity;BME280_pressure;Samples;Min_cycle;Max_cycle;Signal;HPM_P1;HPM_P2
2023/04/25 00:01:12;;;;;;;;;16.33;16.33;;;;;10.56;81.01;100905.69;5139350;27;47386;-71
2023/04/25 00:03:38;;;;;;;;;22.67;18.67;;;;;10.54;81.41;100904.84;5139018;27;45292;-71
2023/04/25 00:06:04;;;;;;;;;22.33;17.67;;;;;10.40;80.78;100892.84;5139112;27;45336;-71
2023/04/25 00:08:30;;;;;;;;;19.00;17.33;;;;;10.49;81.04;100910.22;5139479;27;45399;-71
2023/04/25 00:10:56;;;;;;;;;23.00;17.67;;;;;10.45;81.28;100900.63;5139015;27;46129;-72
2023/04/25 00:13:22;;;;;;;;;22.00;18.00;;;;;10.46;81.79;100902.38;5138957;27;45413;-71
2023/04/25 00:15:48;;;;;;;;;17.67;15.67;;;;;10.48;81.76;100907.63;5139324;27;45354;-71
2023/04/25 00:18:13;;;;;;;;;16.00;16.00;;;;;10.34;79.43;100890.31;5139327;27;45464;-71
2023/04/25 00:20:39;;;;;;;;;19.67;14.67;;;;;10.40;78.93;100913.03;5142276;27;45504;-71
2023/04/25 00:23:05;;;;;;;;;21.00;18.67;;;;;10.27;79.60;100901.84;5143014;27;45372;-72
2023/04/25 00:25:30;;;;;;;;;16.33;13.33;;;;;10.22;79.15;100904.56;5142881;27;45319;-72
2023/04/25 00:27:55;;;;;;;;;18.00;14.67;;;;;10.19;80.84;100898.47;5143033;27;45250;-71
2023/04/25 00:30:20;;;;;;;;;15.00;13.67;;;;;10.25;81.72;100907.13;5142572;27;46175;-71
2023/04/25 00:32:46;;;;;;;;;20.00;16.00;;;;;10.32;81.71;100913.13;5142708;27;45162;-72
2023/04/25 00:35:11;;;;;;;;;19.00;16.67;;;;;10.31;80.72;100913.16;5142646;27;45592;-72
2023/04/25 00:37:37;;;;;;;;;16.67;13.67;;;;;10.30;80.74;100920.19;5142957;27;45427;-71
2023/04/25 00:40:06;;;;;;;;;21.67;18.00;;;;;10.33;80.82;100919.28;5142287;27;46547;-71
2023/04/25 00:42:31;;;;;;;;;28.00;22.00;;;;;10.31;80.44;100921.94;5142169;27;45337;-71
2023/04/25 00:44:58;;;;;;;;;16.00;14.33;;;;;10.29;81.04;100913.19;5142607;27;45425;-72
2023/04/25 00:47:25;;;;;;;;;20.00;15.67;;;;;10.33;81.15;100919.28;5142690;27;45543;-72
2023/04/25 00:49:50;;;;;;;;;17.33;14.67;;;;;10.22;80.71;100908.94;5141775;27;46002;-71
2023/04/25 00:52:15;;;;;;;;;13.67;12.33;;;;;10.26;80.75;100919.38;5142416;27;45276;-71
2023/04/25 00:54:41;;;;;;;;;16.33;10.67;;;;;10.24;80.79;100923.81;5142537;27;46735;-71
2023/04/25 00:57:06;;;;;;;;;19.00;12.00;;;;;10.04;80.36;100891.75;5142865;27;45413;-71
2023/04/25 00:59:32;;;;;;;;;11.33;8.33;;;;;10.05;79.58;100896.97;5142112;27;46540;-71
2023/04/25 01:01:58;;;;;;;;;15.67;8.67;;;;;10.14;78.42;100918.72;5141181;27;45382;-72
2023/04/25 01:04:23;;;;;;;;;9.33;9.00;;;;;10.11;76.91;100931.06;5142340;27;45516;-71
2023/04/25 01:06:49;;;;;;;;;8.50;7.00;;;;;9.99;78.79;100919.88;5142369;27;45520;-71
2023/04/25 01:09:15;;;;;;;;;9.00;7.00;;;;;9.88;76.17;100918.31;5141985;27;45594;-71
2023/04/25 01:11:40;;;;;;;;;13.00;7.00;;;;;9.93;78.53;100929.63;5141802;27;45625;-71
2023/04/25 01:14:06;;;;;;;;;5.00;3.75;;;;;9.88;77.42;100925.34;5141944;27;45449;-71
2023/04/25 01:16:31;;;;;;;;;8.33;5.33;;;;;9.92;77.77;100941.03;5142282;27;45307;-71
2023/04/25 01:18:57;;;;;;;;;6.67;5.00;;;;;9.87;76.67;100937.59;5141781;27;48342;-71
2023/04/25 01:21:22;;;;;;;;;9.75;5.00;;;;;9.76;76.54;100932.53;5141771;27;45736;-71
2023/04/25 01:23:48;;;;;;;;;10.00;8.00;;;;;9.80;76.31;100946.47;5141646;27;45514;-71
2023/04/25 01:26:13;;;;;;;;;9.25;7.25;;;;;9.77;76.03;100941.28;5141809;27;45497;-71
2023/04/25 01:28:42;;;;;;;;;7.25;5.00;;;;;9.73;78.02;100942.22;5141524;27;47147;-71
2023/04/25 01:31:09;;;;;;;;;4.50;3.75;;;;;9.64;76.80;100922.19;5141505;27;45434;-71
2023/04/25 01:33:34;;;;;;;;;5.00;4.50;;;;;9.70;76.99;100937.00;5141786;27;45359;-71
2023/04/25 01:35:59;;;;;;;;;7.00;5.00;;;;;9.71;77.69;100938.75;5141740;27;45507;-71
2023/04/25 01:38:25;;;;;;;;;5.50;5.50;;;;;9.68;78.04;100938.81;5141546;27;46032;-71
2023/04/25 01:40:52;;;;;;;;;6.33;5.33;;;;;9.67;78.24;100937.94;5141424;27;45320;-71
2023/04/25 01:43:17;;;;;;;;;9.00;6.67;;;;;9.66;77.46;100930.09;5141298;27;45412;-71
2023/04/25 01:45:43;;;;;;;;;7.33;5.67;;;;;9.69;77.84;100951.06;5141891;27;45341;-71
2023/04/25 01:48:09;;;;;;;;;7.00;5.33;;;;;9.68;77.83;100941.44;5141409;27;45350;-71
2023/04/25 01:50:35;;;;;;;;;11.67;7.33;;;;;9.58;78.91;100932.81;5141108;27;45339;-71
2023/04/25 01:53:01;;;;;;;;;7.00;5.67;;;;;9.71;79.70;100962.41;5141525;27;45224;-71
2023/04/25 01:55:27;;;;;;;;;11.00;6.67;;;;;9.72;80.06;100980.81;5141694;27;45297;-72
2023/04/25 01:57:53;;;;;;;;;8.00;8.00;;;;;9.62;80.04;100959.94;5141301;27;45352;-72
2023/04/25 02:00:18;;;;;;;;;12.67;8.33;;;;;9.55;78.62;100951.28;5141151;27;45483;-72
2023/04/25 02:02:43;;;;;;;;;9.00;6.00;;;;;9.57;79.62;100967.91;5141094;27;45232;-72
2023/04/25 02:05:09;;;;;;;;;12.00;8.67;;;;;9.53;78.16;100968.84;5141317;27;45442;-72
2023/04/25 02:07:34;;;;;;;;;11.67;7.67;;;;;9.43;85.50;100962.84;5141095;27;46541;-71
2023/04/25 02:10:00;;;;;;;;;9.67;5.00;;;;;9.47;80.19;100964.53;5141269;27;45417;-72
2023/04/25 02:12:26;;;;;;;;;9.33;5.00;;;;;9.39;78.93;100953.25;5141185;27;45381;-71
2023/04/25 02:14:51;;;;;;;;;10.33;6.00;;;;;9.43;79.37;100961.97;5141118;27;45460;-71
2023/04/25 02:17:17;;;;;;;;;8.33;4.00;;;;;9.43;79.58;100968.09;5141017;27;46181;-71
2023/04/25 02:19:43;;;;;;;;;7.67;4.00;;;;;9.47;79.61;100979.41;5140867;27;45756;-72
2023/04/25 02:22:08;;;;;;;;;9.00;5.33;;;;;9.39;80.62;100963.78;5141189;27;45337;-72
2023/04/25 02:24:34;;;;;;;;;7.67;6.00;;;;;9.42;79.62;100971.59;5141285;27;45721;-72
2023/04/25 02:27:00;;;;;;;;;7.33;4.00;;;;;9.40;78.51;100971.63;5140664;27;46642;-72
2023/04/25 02:29:25;;;;;;;;;9.00;6.00;;;;;9.24;80.59;100951.72;5140729;27;45229;-72
2023/04/25 02:31:50;;;;;;;;;12.00;5.00;;;;;9.35;80.56;100972.59;5140746;27;45997;-72
2023/04/25 02:34:16;;;;;;;;;11.67;7.00;;;;;9.28;81.23;100965.66;5141165;27;45288;-72
2023/04/25 02:36:41;;;;;;;;;8.00;6.00;;;;;9.29;81.00;100967.41;5140468;27;46650;-72
2023/04/25 02:39:06;;;;;;;;;5.33;5.33;;;;;9.01;80.63;100926.63;5140542;27;45159;-72
2023/04/25 02:41:32;;;;;;;;;10.33;5.33;;;;;9.22;81.06;100967.50;5140131;27;45388;-72
2023/04/25 02:43:57;;;;;;;;;11.25;5.00;;;;;9.20;80.91;100966.66;5140565;27;45316;-72
2023/04/25 02:46:23;;;;;;;;;5.67;4.00;;;;;9.28;82.13;100969.19;5140609;27;46044;-72
2023/04/25 02:48:48;;;;;;;;;7.33;5.67;;;;;9.27;81.29;100959.56;5140177;27;45260;-72
2023/04/25 02:51:16;;;;;;;;;9.00;7.00;;;;;9.33;81.33;100963.88;5140413;27;45452;-72
2023/04/25 02:53:41;;;;;;;;;8.00;7.00;;;;;9.16;81.29;100932.56;5140867;27;45440;-72
2023/04/25 02:56:06;;;;;;;;;8.00;5.33;;;;;9.29;81.62;100963.03;5139415;27;46218;-72
2023/04/25 02:58:32;;;;;;;;;6.33;5.67;;;;;9.28;80.38;100958.69;5140545;27;45357;-72
2023/04/25 03:00:57;;;;;;;;;5.33;5.33;;;;;9.27;80.84;100961.34;5140507;27;45257;-72
2023/04/25 03:03:22;;;;;;;;;8.00;5.00;;;;;9.28;81.24;100963.03;5140449;27;45584;-71
2023/04/25 03:05:50;;;;;;;;;4.00;4.00;;;;;9.27;81.04;100967.44;5140383;27;45426;-72
2023/04/25 03:08:15;;;;;;;;;8.67;5.00;;;;;9.38;81.09;100983.94;5140128;27;45559;-71
2023/04/25 03:10:41;;;;;;;;;7.00;5.67;;;;;9.34;80.74;100979.59;5140344;27;45303;-71
2023/04/25 03:13:06;;;;;;;;;6.33;5.00;;;;;9.37;80.76;100989.22;5140279;27;45963;-72
2023/04/25 03:15:31;;;;;;;;;7.67;6.33;;;;;9.33;80.13;100982.25;5139960;27;46196;-71
2023/04/25 03:17:57;;;;;;;;;10.67;5.33;;;;;9.28;80.55;100977.06;5140282;27;45208;-72
2023/04/25 03:20:22;;;;;;;;;8.33;4.67;;;;;9.35;80.57;100989.25;5140039;27;45454;-72
2023/04/25 03:22:47;;;;;;;;;3.67;3.00;;;;;9.34;80.01;100995.38;5140352;27;45419;-72
2023/04/25 03:25:13;;;;;;;;;9.00;5.67;;;;;9.37;81.13;100995.31;5139815;27;47054;-71
2023/04/25 03:27:38;;;;;;;;;6.67;5.00;;;;;9.35;81.07;100999.75;5139928;27;45444;-71
2023/04/25 03:30:04;;;;;;;;;8.33;5.33;;;;;9.35;81.14;100998.84;5139419;27;45291;-71
2023/04/25 03:32:29;;;;;;;;;9.67;7.33;;;;;9.32;81.06;100984.00;5140019;27;45539;-71
2023/04/25 03:34:55;;;;;;;;;21.00;15.33;;;;;9.37;81.49;100995.31;5139712;27;45441;-71
2023/04/25 03:37:20;;;;;;;;;12.00;6.67;;;;;9.34;80.56;100995.38;5139509;27;45506;-72
2023/04/25 03:39:46;;;;;;;;;9.67;8.33;;;;;9.37;81.17;100997.97;5139947;27;45416;-71
2023/04/25 03:42:11;;;;;;;;;6.67;6.67;;;;;9.33;80.82;100990.16;5140082;27;45328;-71
2023/04/25 03:44:36;;;;;;;;;14.00;7.00;;;;;9.39;81.51;100997.94;5139264;27;46646;-71
2023/04/25 03:47:02;;;;;;;;;8.00;6.50;;;;;9.26;80.92;100983.22;5139728;27;45275;-72
2023/04/25 03:49:27;;;;;;;;;8.00;6.00;;;;;9.10;80.43;100962.41;5139387;27;45434;-72
2023/04/25 03:51:52;;;;;;;;;8.00;6.67;;;;;9.35;79.71;101001.50;5139761;27;45283;-72
2023/04/25 03:54:18;;;;;;;;;8.00;5.00;;;;;9.18;81.29;100991.22;5138230;27;45445;-72
2023/04/25 03:56:43;;;;;;;;;8.00;6.00;;;;;9.26;81.29;101004.25;5139445;27;45462;-71
2023/04/25 03:59:08;;;;;;;;;8.00;4.67;;;;;9.18;81.57;100985.97;5139674;27;45394;-71
2023/04/25 04:01:35;;;;;;;;;7.00;7.00;;;;;9.24;80.98;100994.63;5139524;27;45643;-71
2023/04/25 04:04:00;;;;;;;;;7.67;6.33;;;;;9.30;80.99;101008.59;5139223;27;47509;-72
2023/04/25 04:06:26;;;;;;;;;7.33;6.00;;;;;9.20;81.65;100992.06;5139129;27;45416;-72
2023/04/25 04:08:51;;;;;;;;;6.00;6.00;;;;;9.27;81.89;101003.38;5139278;27;45248;-72
2023/04/25 04:11:17;;;;;;;;;5.67;5.33;;;;;9.05;81.05;100970.34;5139438;27;45479;-71
2023/04/25 04:13:42;;;;;;;;;11.33;6.00;;;;;9.28;80.36;101008.59;5139019;27;45387;-72
2023/04/25 04:16:08;;;;;;;;;9.33;6.00;;;;;9.26;81.03;101017.38;5139262;27;45426;-72
2023/04/25 04:18:33;;;;;;;;;7.67;7.00;;;;;9.22;81.16;101016.53;5139272;27;45372;-71
2023/04/25 04:20:59;;;;;;;;;9.00;5.00;;;;;9.24;81.02;101022.66;5139224;27;45599;-71
2023/04/25 04:23:27;;;;;;;;;10.67;5.00;;;;;9.19;81.27;101013.97;5139208;27;46011;-71
2023/04/25 04:25:53;;;;;;;;;11.33;7.33;;;;;9.26;80.76;101031.38;5138874;27;45621;-71
2023/04/25 04:28:19;;;;;;;;;11.33;8.00;;;;;9.14;80.61;101000.03;5139010;27;45476;-71
2023/04/25 04:30:45;;;;;;;;;8.33;7.33;;;;;9.18;80.78;101018.34;5139129;27;45260;-71
2023/04/25 04:33:11;;;;;;;;;12.67;8.00;;;;;9.14;80.82;101006.13;5138875;27;45458;-71
2023/04/25 04:35:37;;;;;;;;;10.33;7.00;;;;;9.21;81.38;101031.44;5138817;27;45270;-71
2023/04/25 04:38:03;;;;;;;;;8.67;6.67;;;;;9.19;81.17;101029.72;5120188;27;45404;-71
2023/04/25 04:40:30;;;;;;;;;12.00;9.67;;;;;8.88;80.89;100991.56;5139231;27;45230;-72
2023/04/25 04:42:57;;;;;;;;;18.67;12.67;;;;;9.05;81.35;101015.00;5138609;27;47162;-71
2023/04/25 04:45:23;;;;;;;;;12.67;8.67;;;;;8.93;81.45;101004.66;5138777;27;45469;-71
2023/04/25 04:47:49;;;;;;;;;6.33;3.00;;;;;9.12;81.01;101035.94;5139297;27;45308;-72
2023/04/25 04:50:15;;;;;;;;;13.33;9.67;;;;;9.19;81.32;101043.75;5138819;27;45388;-72
2023/04/25 04:52:42;;;;;;;;;8.33;8.33;;;;;9.22;82.06;101042.81;5138531;27;45471;-71
2023/04/25 04:55:08;;;;;;;;;11.33;8.67;;;;;9.22;80.89;101053.31;5138726;27;45433;-71
2023/04/25 04:57:34;;;;;;;;;8.00;6.67;;;;;9.20;80.34;101049.84;5138746;27;45509;-72
2023/04/25 05:00:00;;;;;;;;;5.67;5.00;;;;;9.15;80.48;101047.28;5138846;27;45385;-72
2023/04/25 05:02:26;;;;;;;;;12.00;9.33;;;;;9.22;80.36;101062.09;5137315;27;46558;-72
2023/04/25 05:04:52;;;;;;;;;12.33;8.33;;;;;9.24;80.66;101062.06;5138907;27;45425;-72
2023/04/25 05:07:18;;;;;;;;;9.33;9.33;;;;;9.24;79.73;101065.56;5142280;27;45443;-72
2023/04/25 05:09:43;;;;;;;;;11.33;10.00;;;;;9.09;79.81;101039.50;5142328;27;45443;-72
2023/04/25 05:12:09;;;;;;;;;8.00;6.25;;;;;9.18;78.96;101063.03;5142074;27;45346;-72
2023/04/25 05:14:34;;;;;;;;;9.33;7.00;;;;;9.14;78.03;101068.34;5141992;27;45398;-71
2023/04/25 05:17:00;;;;;;;;;6.75;4.50;;;;;9.17;76.60;101086.69;5142050;27;45174;-72
2023/04/25 05:19:26;;;;;;;;;9.75;5.50;;;;;9.01;75.83;101071.09;5142169;27;45534;-71
2023/04/25 05:21:51;;;;;;;;;5.25;4.50;;;;;8.88;75.66;101059.84;5141702;27;47253;-72
2023/04/25 05:24:16;;;;;;;;;5.33;5.33;;;;;9.06;74.72;101103.44;5141984;27;45198;-71
2023/04/25 05:26:42;;;;;;;;;3.33;3.33;;;;;9.03;75.40;101106.09;5141966;27;45300;-72
2023/04/25 05:29:07;;;;;;;;;4.00;4.00;;;;;8.97;75.02;101098.25;5142062;27;45320;-72
2023/04/25 05:31:34;;;;;;;;;5.00;3.50;;;;;9.04;74.50;101113.06;5141557;27;46278;-72
2023/04/25 05:33:59;;;;;;;;;2.50;2.50;;;;;8.94;74.34;101108.81;5141656;27;45457;-71
2023/04/25 05:36:25;;;;;;;;;6.00;4.00;;;;;8.95;74.56;101118.44;5141958;27;45341;-71
2023/04/25 05:38:51;;;;;;;;;4.50;4.00;;;;;9.01;74.09;101128.88;5141762;27;45308;-71
2023/04/25 05:41:16;;;;;;;;;3.75;3.75;;;;;8.97;74.15;101132.41;5141464;27;45421;-71
2023/04/25 05:43:46;;;;;;;;;4.33;4.00;;;;;8.88;74.59;101116.75;5141396;27;45439;-72
2023/04/25 05:46:12;;;;;;;;;4.67;4.00;;;;;8.95;73.90;101130.69;5141383;27;45301;-72
2023/04/25 05:48:37;;;;;;;;;11.67;11.00;;;;;9.04;73.74;101138.47;5141758;27;45434;-71
2023/04/25 05:51:03;;;;;;;;;16.00;13.33;;;;;9.01;73.60;101143.75;5141235;27;45725;-72
2023/04/25 05:53:28;;;;;;;;;4.25;4.25;;;;;8.97;74.42;101134.16;5141283;27;45444;-72
2023/04/25 05:55:54;;;;;;;;;6.00;5.00;;;;;9.03;74.27;101149.88;5139040;27;45405;-72
2023/04/25 05:58:19;;;;;;;;;3.75;3.75;;;;;9.06;72.65;101150.72;5125753;27;45442;-71
2023/04/25 06:00:46;;;;;;;;;8.33;7.00;;;;;9.08;73.67;101153.31;5134102;27;46417;-72
2023/04/25 06:03:13;;;;;;;;;7.00;5.00;;;;;9.09;73.91;101147.19;5141134;27;45383;-71
2023/04/25 06:05:38;;;;;;;;;7.25;4.00;;;;;9.12;72.07;101156.78;5141287;27;45435;-71
2023/04/25 06:08:04;;;;;;;;;1.00;1.00;;;;;8.91;72.68;101121.09;5141463;27;45374;-71
2023/04/25 06:10:29;;;;;;;;;6.67;6.00;;;;;9.06;72.26;101142.84;5141008;27;45509;-71
2023/04/25 06:12:54;;;;;;;;;7.33;7.33;;;;;9.17;72.07;101158.47;5141046;27;45507;-71
2023/04/25 06:15:20;;;;;;;;;5.50;5.50;;;;;9.08;69.63;101150.69;5141269;27;45227;-72
2023/04/25 06:17:45;;;;;;;;;7.33;5.00;;;;;9.21;70.43;101172.47;5140122;27;45419;-71
2023/04/25 06:20:11;;;;;;;;;6.33;4.33;;;;;9.14;70.43;101152.41;5140970;27;46470;-71
2023/04/25 06:22:36;;;;;;;;;7.67;6.33;;;;;9.22;70.27;101166.31;5140758;27;45392;-71
2023/04/25 06:25:03;;;;;;;;;4.33;4.33;;;;;9.30;69.38;101188.13;5141045;27;45430;-72
2023/04/25 06:27:29;;;;;;;;;15.67;12.00;;;;;9.29;71.05;101196.03;5141155;27;45621;-71
2023/04/25 06:29:54;;;;;;;;;9.33;5.00;;;;;9.27;70.34;101188.16;5140365;27;46489;-71
2023/04/25 06:32:19;;;;;;;;;4.00;4.00;;;;;9.29;70.34;101182.88;5140924;27;45391;-71
2023/04/25 06:34:45;;;;;;;;;4.33;4.00;;;;;9.36;69.85;101189.81;5140677;27;45679;-71
2023/04/25 06:37:10;;;;;;;;;4.00;3.00;;;;;9.24;70.28;101151.41;5140867;27;45342;-71
2023/04/25 06:39:36;;;;;;;;;9.50;4.75;;;;;9.53;69.54;101193.13;5140699;27;46595;-71
2023/04/25 06:42:01;;;;;;;;;6.00;5.67;;;;;9.57;68.47;101192.22;5140675;27;45318;-71
2023/04/25 06:44:29;;;;;;;;;9.33;5.00;;;;;9.58;68.76;101193.97;5140609;27;45320;-71
2023/04/25 06:46:54;;;;;;;;;9.00;7.00;;;;;9.70;67.95;101199.94;5140814;27;45456;-71
2023/04/25 06:49:20;;;;;;;;;8.33;5.00;;;;;9.70;68.29;101194.69;5140203;27;46142;-71
2023/04/25 06:51:45;;;;;;;;;12.67;9.33;;;;;9.84;68.86;101215.56;5140693;27;45462;-71
2023/04/25 06:54:10;;;;;;;;;7.00;5.33;;;;;9.75;67.43;101188.50;5140404;27;45162;-71
2023/04/25 06:56:36;;;;;;;;;5.33;5.33;;;;;9.88;67.67;101199.72;5140914;27;45366;-71
2023/04/25 06:59:01;;;;;;;;;9.33;5.67;;;;;9.97;67.91;101208.41;5140232;27;45664;-71
2023/04/25 07:01:26;;;;;;;;;8.75;6.75;;;;;9.98;67.58;101205.75;5139555;27;45461;-71
2023/04/25 07:03:52;;;;;;;;;16.67;10.33;;;;;10.07;67.09;101224.03;5119991;27;45329;-71
2023/04/25 07:06:17;;;;;;;;;8.00;7.00;;;;;10.14;67.49;101237.09;5119708;27;45376;-70
2023/04/25 07:08:43;;;;;;;;;8.00;5.67;;;;;10.15;66.96;101230.97;5119243;27;45406;-71
2023/04/25 07:11:08;;;;;;;;;8.00;7.00;;;;;10.13;66.14;101241.50;5119477;27;45413;-71
2023/04/25 07:13:33;;;;;;;;;8.67;5.67;;;;;10.08;66.47;101259.13;5119498;27;45611;-71
2023/04/25 07:16:00;;;;;;;;;8.00;6.00;;;;;9.95;66.62;101229.47;5119560;27;45528;-71
2023/04/25 07:18:25;;;;;;;;;11.75;6.00;;;;;9.90;67.23;101226.00;5119159;27;46565;-71
2023/04/25 07:20:50;;;;;;;;;7.00;6.00;;;;;10.01;66.61;101254.84;5119332;27;45394;-71
2023/04/25 07:23:15;;;;;;;;;10.00;8.33;;;;;10.07;67.87;101266.13;5119180;27;45434;-71
2023/04/25 07:25:41;;;;;;;;;5.00;5.00;;;;;10.07;66.60;101265.28;5119511;27;45495;-71
2023/04/25 07:28:06;;;;;;;;;9.00;5.00;;;;;10.10;66.36;101254.72;5118535;27;46595;-71
2023/04/25 07:30:31;;;;;;;;;10.25;5.00;;;;;10.09;67.24;101245.06;5118918;27;45372;-71
2023/04/25 07:32:57;;;;;;;;;6.67;4.67;;;;;10.09;65.27;101242.44;5119179;27;45690;-72
2023/04/25 07:35:22;;;;;;;;;10.00;8.00;;;;;10.07;66.70;101239.81;5119262;27;45406;-71
2023/04/25 07:37:47;;;;;;;;;6.33;5.67;;;;;10.16;66.77;101256.41;5118302;27;45558;-72
2023/04/25 07:40:15;;;;;;;;;5.67;3.67;;;;;10.24;65.95;101260.66;5118865;27;45613;-72
2023/04/25 07:42:40;;;;;;;;;12.75;5.50;;;;;10.22;66.85;101238.78;5118833;27;45545;-68
2023/04/25 07:45:06;;;;;;;;;6.00;4.50;;;;;10.27;65.69;101230.81;5119357;27;45361;-71
2023/04/25 07:47:32;;;;;;;;;7.00;5.33;;;;;10.53;64.73;101259.44;5118607;27;46360;-71
2023/04/25 07:49:57;;;;;;;;;6.75;6.00;;;;;10.70;63.55;101251.25;5118846;27;45372;-71
2023/04/25 07:52:23;;;;;;;;;8.33;7.00;;;;;10.92;62.54;101248.28;5118902;27;45319;-71
2023/04/25 07:54:48;;;;;;;;;9.00;6.00;;;;;11.21;60.34;101253.09;5118925;27;45238;-71
2023/04/25 07:57:13;;;;;;;;;6.50;5.00;;;;;11.42;60.47;101243.06;5118767;27;45343;-71
2023/04/25 07:59:39;;;;;;;;;6.75;5.75;;;;;11.89;58.60;101274.72;5118560;27;45415;-71
2023/04/25 08:02:05;;;;;;;;;3.25;2.75;;;;;12.24;57.58;101279.28;5118735;27;45379;-71
2023/04/25 08:04:30;;;;;;;;;9.50;3.00;;;;;12.24;57.71;101252.88;5118817;27;45314;-71
2023/04/25 08:06:55;;;;;;;;;2.00;2.00;;;;;12.47;56.64;101246.25;5118623;27;45443;-72
2023/04/25 08:09:21;;;;;;;;;5.00;3.25;;;;;12.64;54.88;101267.00;5118271;27;45240;-71
2023/04/25 08:11:47;;;;;;;;;5.50;3.50;;;;;12.80;57.50;101286.00;5118022;27;45432;-71
2023/04/25 08:14:13;;;;;;;;;3.50;2.00;;;;;13.03;54.17;101296.91;5118727;27;45245;-72
2023/04/25 08:16:38;;;;;;;;;4.00;2.00;;;;;13.25;54.12;101291.09;5118327;27;46381;-71
2023/04/25 08:19:04;;;;;;;;;5.50;4.00;;;;;13.27;53.77;101291.03;5118275;27;45246;-71
2023/04/25 08:21:31;;;;;;;;;6.67;6.67;;;;;13.53;53.53;101291.25;5118596;27;45275;-72
2023/04/25 08:23:57;;;;;;;;;3.25;1.25;;;;;15.59;52.38;101291.22;5118323;27;45449;-71
2023/04/25 08:26:23;;;;;;;;;3.00;2.50;;;;;16.24;48.17;101283.59;5117996;27;47052;-72
2023/04/25 08:28:49;;;;;;;;;6.50;3.00;;;;;16.09;46.85;101282.38;5118116;27;45437;-72
2023/04/25 08:31:14;;;;;;;;;3.50;2.00;;;;;16.17;48.24;101298.03;5118304;27;45264;-72
2023/04/25 08:33:40;;;;;;;;;2.25;2.25;;;;;16.08;47.61;101312.53;5124676;27;45422;-72
2023/04/25 08:36:05;;;;;;;;;7.25;4.00;;;;;15.78;48.39;101299.41;5136067;27;46110;-72
2023/04/25 08:38:31;;;;;;;;;4.25;2.00;;;;;15.27;47.32;101269.31;5136506;27;45737;-72
2023/04/25 08:40:56;;;;;;;;;3.50;3.50;;;;;15.21;47.91;101313.75;5136167;27;45387;-72
2023/04/25 08:43:23;;;;;;;;;5.75;3.50;;;;;14.92;48.41;101312.91;5141796;27;45479;-71
2023/04/25 08:45:48;;;;;;;;;4.75;3.25;;;;;14.56;48.73;101316.63;5118986;27;45546;-72
2023/04/25 08:48:16;;;;;;;;;1.00;1.00;;;;;14.22;49.30;101327.34;5108603;27;45403;-71
2023/04/25 08:50:52;;;;;;;;;3.75;2.50;;;;;13.89;50.56;101335.31;5111595;27;45482;-71
2023/04/25 08:53:36;;;;;;;;;3.75;2.00;;;;;13.46;51.38;101339.94;5108615;27;45753;-71
2023/04/25 08:56:02;;;;;;;;;3.00;3.00;;;;;13.12;51.34;101340.75;5110562;27;46198;-71
2023/04/25 08:58:28;;;;;;;;;2.00;2.00;;;;;12.97;51.62;101344.63;5134597;27;45386;-71
2023/04/25 09:00:54;;;;;;;;;2.50;2.00;;;;;12.75;52.10;101344.25;5142415;27;45333;-71
2023/04/25 09:03:19;;;;;;;;;4.50;3.00;;;;;12.49;52.46;101336.88;5136330;27;45455;-73
2023/04/25 09:05:45;;;;;;;;;5.25;3.00;;;;;12.54;53.68;101346.44;5107280;27;46493;-75
2023/04/25 09:08:10;;;;;;;;;2.25;2.00;;;;;12.66;52.67;101360.28;5124606;27;45525;-73
2023/04/25 09:10:36;;;;;;;;;2.25;1.50;;;;;12.78;53.50;101372.34;5141633;27;45516;-72
2023/04/25 09:13:17;;;;;;;;;4.00;2.25;;;;;12.98;53.21;101374.56;5142314;27;45416;-73
2023/04/25 09:15:53;;;;;;;;;4.50;2.00;;;;;13.06;52.68;101368.19;5136503;27;45345;-69
2023/04/25 09:18:37;;;;;;;;;3.00;3.00;;;;;13.22;52.52;101366.06;5098856;27;45416;-72
2023/04/25 09:21:10;;;;;;;;;2.75;1.25;;;;;13.74;52.14;101365.72;5116533;27;45620;-72
2023/04/25 09:23:46;;;;;;;;;2.25;2.25;;;;;14.34;51.40;101339.38;5116105;27;45392;-73
2023/04/25 09:26:16;;;;;;;;;3.00;1.75;;;;;14.91;50.46;101367.72;5120434;27;45392;-71
2023/04/25 09:28:42;;;;;;;;;3.75;1.25;;;;;15.32;48.34;101368.19;5119551;27;45428;-71
2023/04/25 09:31:10;;;;;;;;;2.50;2.00;;;;;16.06;46.65;101371.94;5119132;27;45315;-72
2023/04/25 09:33:36;;;;;;;;;3.50;1.75;;;;;16.26;45.98;101363.25;5121270;27;45308;-71
2023/04/25 09:36:07;;;;;;;;;1.50;1.00;;;;;16.44;45.12;101375.88;5120346;27;46232;-72
2023/04/25 09:38:45;;;;;;;;;1.25;1.25;;;;;16.82;45.04;101359.38;5120554;27;45276;-72
2023/04/25 09:41:21;;;;;;;;;1.75;0.75;;;;;17.65;43.48;101382.66;5120248;27;47015;-72
2023/04/25 09:43:49;;;;;;;;;3.00;1.25;;;;;19.30;38.50;101387.66;5133242;27;45440;-72
2023/04/25 09:46:15;;;;;;;;;2.00;0.25;;;;;20.87;37.81;101359.94;5140922;27;45454;-72
2023/04/25 09:48:49;;;;;;;;;4.25;3.00;;;;;23.27;37.30;101386.53;5141179;27;45342;-73
2023/04/25 09:51:14;;;;;;;;;2.00;2.00;;;;;24.76;34.74;101387.97;5138195;27;45460;-73
2023/04/25 09:53:41;;;;;;;;;2.00;0.50;;;;;24.45;37.08;101379.41;5134907;27;45514;-72
2023/04/25 09:56:11;;;;;;;;;4.33;4.33;;;;;23.42;33.05;101371.22;5135346;27;46636;-72
2023/04/25 09:58:39;;;;;;;;;0.00;0.00;;;;;22.27;34.22;101370.41;5137030;27;45412;-72
2023/04/25 10:01:07;;;;;;;;;4.00;0.50;;;;;21.42;33.51;101392.50;5139473;27;45396;-71
2023/04/25 10:03:44;;;;;;;;;1.50;1.00;;;;;20.52;35.46;101398.34;5136137;27;45508;-72
2023/04/25 10:06:19;;;;;;;;;7.00;1.25;;;;;20.91;36.20;101398.09;5136468;27;46937;-72
2023/04/25 10:08:45;;;;;;;;;2.50;1.00;;;;;21.50;33.96;101393.78;5138327;27;45442;-73
2023/04/25 10:11:14;;;;;;;;;4.00;2.75;;;;;21.13;33.50;101385.22;5139105;27;45538;-72
2023/04/25 10:13:40;;;;;;;;;4.00;1.75;;;;;21.19;34.95;101398.25;5139723;27;45465;-72
2023/04/25 10:16:05;;;;;;;;;2.25;1.50;;;;;22.13;33.63;101378.47;5138656;27;46831;-71
2023/04/25 10:18:32;;;;;;;;;3.00;2.00;;;;;22.15;34.11;101398.03;5120171;27;45547;-71
2023/04/25 10:21:01;;;;;;;;;4.00;2.00;;;;;21.42;33.91;101404.13;5139295;27;45447;-72
2023/04/25 10:23:29;;;;;;;;;1.00;0.00;;;;;20.73;36.19;101405.34;5137469;27;45533;-72
2023/04/25 10:25:54;;;;;;;;;4.00;2.00;;;;;20.02;36.92;101409.91;5133985;27;45401;-73
2023/04/25 10:28:20;;;;;;;;;5.67;4.33;;;;;19.35;37.03;101399.00;5139099;27;45624;-71
2023/04/25 10:31:07;;;;;;;;;1.00;1.00;;;;;18.79;37.84;101416.75;5138843;27;45531;-73
2023/04/25 10:33:41;;;;;;;;;1.00;1.00;;;;;18.26;38.63;101404.94;5139093;27;45315;-71
2023/04/25 10:36:15;;;;;;;;;1.00;1.00;;;;;17.89;38.86;101425.16;5133620;27;47116;-72
2023/04/25 10:38:45;;;;;;;;;3.50;2.00;;;;;17.65;38.83;101417.28;5138759;27;45447;-71
2023/04/25 10:41:12;;;;;;;;;3.00;1.25;;;;;17.49;38.78;101397.56;5138445;27;45387;-72
2023/04/25 10:43:42;;;;;;;;;4.00;3.00;;;;;17.55;37.99;101418.59;5130857;27;45422;-72
2023/04/25 10:46:25;;;;;;;;;2.00;2.00;;;;;17.78;40.04;101391.00;5129299;27;46427;-72
2023/04/25 10:48:53;;;;;;;;;4.00;1.00;;;;;18.56;37.99;101426.69;5124486;27;45548;-73
2023/04/25 10:51:20;;;;;;;;;1.00;1.00;;;;;18.97;36.96;101431.09;5120674;27;45737;-71
2023/04/25 10:53:55;;;;;;;;;4.00;1.00;;;;;19.06;38.30;101421.78;5118320;27;45540;-72
2023/04/25 10:56:22;;;;;;;;;1.75;1.50;;;;;19.10;37.30;101400.19;5120287;27;45436;-72
2023/04/25 10:58:48;;;;;;;;;2.25;1.25;;;;;19.48;38.12;101421.50;5127073;27;45365;-72
2023/04/25 11:01:19;;;;;;;;;3.00;3.00;;;;;19.30;36.69;101427.72;5122625;27;45409;-72
2023/04/25 11:03:44;;;;;;;;;3.50;3.00;;;;;19.09;36.57;101422.47;5120800;27;45303;-72
2023/04/25 11:06:22;;;;;;;;;6.00;5.00;;;;;19.04;36.25;101413.84;5118338;27;45742;-71
2023/04/25 11:08:50;;;;;;;;;3.00;1.50;;;;;18.94;35.39;101424.09;5118994;27;45533;-72
2023/04/25 11:11:19;;;;;;;;;2.33;2.33;;;;;18.62;34.92;101428.22;5118441;27;45511;-72
2023/04/25 11:13:48;;;;;;;;;3.75;2.50;;;;;18.25;35.22;101403.19;5119294;27;45448;-71
2023/04/25 11:16:14;;;;;;;;;5.50;3.50;;;;;18.02;35.80;101423.75;5118572;27;45325;-71
2023/04/25 11:18:43;;;;;;;;;6.50;3.00;;;;;17.71;35.89;101421.47;5119147;27;45410;-71
2023/04/25 11:21:08;;;;;;;;;6.25;3.25;;;;;17.44;35.64;101410.16;5118217;27;45395;-71
2023/04/25 11:23:34;;;;;;;;;2.25;2.25;;;;;17.21;36.60;101398.69;5118195;27;45444;-72